CEX3 weather

Wetaskiwin Regional Airport
Wetaskiwin, Alberta, Canada

Public forecast

Using degrees Celsius for public forecast. Weather courtesy of forecast.io.

METAR (pilot weather report)

Closest report is Edmonton International Airport, 21.6 nm (40.0 km) NNW. Retrieved 2019/07/19 16:00 UTC (10 minutes ago):

CYEG 191600Z 29009KT 12SM -RA BKN008 OVC012 11/11 A2970 RMK SF6SC2 CIG RAG BR SLP068 DENSITY ALT 2800FT

TAF (pilot weather forecast)

Closest forecast is Edmonton International Airport, 21.6 nm (40.0 km) NNW. Retrieved 2019/07/19 15:48 UTC (22 minutes ago):

TAF CYEG 191443Z 1915/2012 29012KT P6SM -SHRA SCT006 OVC012 TEMPO 1915/1919 2SM -SHRA BR BKN006 BECMG 1917/1919 01012KT FM191900 02012KT P6SM VCTS SCT012 BKN025CB TEMPO 1919/1924 VRB20G30KT 3SM +TSRA BR BKN010CB BECMG 1920/1922 05015G25KT FM200000 04015KT P6SM VCSH SCT020 BKN030 TEMPO 2000/2006 5SM -SHRA BR BKN020 OVC040 PROB30 2000/2004 VRB15G25KT 3SM TSRA BR BKN015CB FM200600 30008KT P6SM FEW008 BKN030 TEMPO 2009/2012 2SM BR BKN006 OVC030 PROB30 2010/2012 1/2SM FG VV004 RMK NXT FCST BY 191800Z